Summary for K7042

Overbrook, Norfolk, VA 23513-4100
Join the PWSweather.com Network
View data in metric units
Latest Conditions
Updated 8:55:05 PM EDT Wednesday, Apr 16, 2014
Data Currently Today's Max Today's Min Today's Average
Temperature 40.9°F4.9°C 46.1°F7.8°C 35.3°F1.8°C 40.7°F4.8°C
Dew Point 33.6°F0.9°C 39.0°F3.9°C 24.9°F-3.9°C 30.9°F-0.6°C
Winds Calm Calm 17.0 mph N27.4 kmh N CalmCalm 4.4 mph7.1 kmh
Wind Gusts 3.0 mph4.8 kmh 18.0 mph29.0 kmh -- 11.4 mph18.3 kmh
Humidity 75% 94% 51% 69%
Pressure 30.46 in1031.5 mb 30.46 in1031.5 mb 29.95 in1014.2 mb 30.28 in1025.4 mb
Precipitation 0.00 in0.0 mm - - 0.76 in19.3 mm
Trends
 
Station Profile
OverbrookNorfolk, VA 23513-4100

Lat: 36.875, Lon: -76.244
Elevation: 20
Station Type: Davis Vantage Pro 2

Detailed Summary for Wed, Apr 16, 2014
Hour (EDT) Temperature Dew Point Humidity Winds Wind Gusts Pressure Precip Precip Rate Daily Precip Total
08:55 PM 40.9°F4.9°C 33.6°F0.9°C 75% Calm Calm 3.0 mph4.8 kmh 30.46 in1031.5 mb 0.00 in0.0 mm 0.00 in/hr0.0 mm/hr 0.20 in5.1 mm
08:50 PM 40.9°F4.9°C 33.6°F0.9°C 75% Calm Calm 1.0 mph1.6 kmh 30.46 in1031.5 mb 0.00 in0.0 mm 0.00 in/hr0.0 mm/hr 0.20 in5.1 mm
08:45 PM 40.9°F4.9°C 33.3°F0.7°C 74% Calm Calm 1.0 mph1.6 kmh 30.46 in1031.5 mb 0.00 in0.0 mm 0.00 in/hr0.0 mm/hr 0.20 in5.1 mm
08:40 PM 40.9°F4.9°C 33.6°F0.9°C 75% Calm Calm 1.0 mph1.6 kmh 30.46 in1031.5 mb 0.00 in0.0 mm 0.00 in/hr0.0 mm/hr 0.20 in5.1 mm
08:35 PM 41.0°F5.0°C 33.4°F0.8°C 74% Calm Calm 1.0 mph1.6 kmh 30.46 in1031.5 mb 0.00 in0.0 mm 0.00 in/hr0.0 mm/hr 0.20 in5.1 mm
08:30 PM 41.1°F5.1°C 33.5°F0.8°C 74% Calm Calm 3.0 mph4.8 kmh 30.45 in1031.2 mb 0.00 in0.0 mm 0.00 in/hr0.0 mm/hr 0.20 in5.1 mm
08:25 PM 41.1°F5.1°C 33.5°F0.8°C 74% Calm Calm -- 30.45 in1031.2 mb 0.00 in0.0 mm 0.00 in/hr0.0 mm/hr 0.20 in5.1 mm
08:20 PM 41.3°F5.2°C 33.7°F0.9°C 74% Calm Calm 1.0 mph1.6 kmh 30.45 in1031.2 mb 0.00 in0.0 mm 0.00 in/hr0.0 mm/hr 0.20 in5.1 mm
08:15 PM 41.5°F5.3°C 33.5°F0.8°C 73% Calm Calm 2.0 mph3.2 kmh 30.45 in1031.2 mb 0.00 in0.0 mm 0.00 in/hr0.0 mm/hr 0.20 in5.1 mm
08:10 PM 41.6°F5.3°C 33.6°F0.9°C 73% Calm Calm 3.0 mph4.8 kmh 30.45 in1031.2 mb 0.00 in0.0 mm 0.00 in/hr0.0 mm/hr 0.20 in5.1 mm
08:05 PM 41.7°F5.4°C 33.7°F0.9°C 73% Calm Calm 3.0 mph4.8 kmh 30.45 in1031.2 mb 0.00 in0.0 mm 0.00 in/hr0.0 mm/hr 0.20 in5.1 mm
08:00 PM 41.8°F5.4°C 33.8°F1.0°C 73% Calm Calm 1.0 mph1.6 kmh 30.44 in1030.8 mb 0.00 in0.0 mm 0.00 in/hr0.0 mm/hr 0.20 in5.1 mm
07:55 PM 41.9°F5.5°C 33.6°F0.9°C 72% Calm Calm 2.0 mph3.2 kmh 30.44 in1030.8 mb 0.00 in0.0 mm 0.00 in/hr0.0 mm/hr 0.20 in5.1 mm
07:50 PM 42.1°F5.6°C 33.7°F0.9°C 72% Calm Calm 1.0 mph1.6 kmh 30.44 in1030.8 mb 0.00 in0.0 mm 0.00 in/hr0.0 mm/hr 0.20 in5.1 mm
07:45 PM 42.2°F5.7°C 33.8°F1.0°C 72% Calm Calm 3.0 mph4.8 kmh 30.44 in1030.8 mb 0.00 in0.0 mm 0.00 in/hr0.0 mm/hr 0.20 in5.1 mm
07:40 PM 42.4°F5.8°C 33.7°F0.9°C 71% Calm Calm 2.0 mph3.2 kmh 30.43 in1030.5 mb 0.00 in0.0 mm 0.00 in/hr0.0 mm/hr 0.20 in5.1 mm
07:35 PM 42.5°F5.8°C 33.8°F1.0°C 71% Calm Calm 3.0 mph4.8 kmh 30.43 in1030.5 mb 0.00 in0.0 mm 0.00 in/hr0.0 mm/hr 0.20 in5.1 mm
07:30 PM 42.7°F5.9°C 33.6°F0.9°C 70% Calm Calm 5.0 mph8.0 kmh 30.43 in1030.5 mb 0.00 in0.0 mm 0.00 in/hr0.0 mm/hr 0.20 in5.1 mm
07:25 PM 42.8°F6.0°C 33.7°F0.9°C 70% 4.0 mph ENE6.4 kmh ENE 8.0 mph12.9 kmh 30.43 in1030.5 mb 0.00 in0.0 mm 0.00 in/hr0.0 mm/hr 0.20 in5.1 mm
07:20 PM 43.0°F6.1°C 33.5°F0.8°C 69% 3.0 mph ENE4.8 kmh ENE 4.0 mph6.4 kmh 30.43 in1030.5 mb 0.00 in0.0 mm 0.00 in/hr0.0 mm/hr 0.20 in5.1 mm
07:15 PM 43.1°F6.2°C 33.3°F0.7°C 68% Calm Calm 5.0 mph8.0 kmh 30.43 in1030.5 mb 0.00 in0.0 mm 0.00 in/hr0.0 mm/hr 0.20 in5.1 mm
07:10 PM 43.3°F6.3°C 33.5°F0.8°C 68% 2.0 mph ESE3.2 kmh ESE 5.0 mph8.0 kmh 30.43 in1030.5 mb 0.00 in0.0 mm 0.00 in/hr0.0 mm/hr 0.20 in5.1 mm
07:05 PM 43.5°F6.4°C 33.3°F0.7°C 67% Calm Calm 4.0 mph6.4 kmh 30.42 in1030.1 mb 0.00 in0.0 mm 0.00 in/hr0.0 mm/hr 0.20 in5.1 mm
07:00 PM 43.6°F6.4°C 33.0°F0.6°C 66% 6.0 mph NE9.7 kmh NE 8.0 mph12.9 kmh 30.42 in1030.1 mb 0.00 in0.0 mm 0.00 in/hr0.0 mm/hr 0.20 in5.1 mm
06:55 PM 43.8°F6.6°C 32.8°F0.4°C 65% Calm Calm 8.0 mph12.9 kmh 30.42 in1030.1 mb 0.00 in0.0 mm 0.00 in/hr0.0 mm/hr 0.20 in5.1 mm
06:50 PM 44.1°F6.7°C 33.1°F0.6°C 65% Calm Calm 3.0 mph4.8 kmh 30.42 in1030.1 mb 0.00 in0.0 mm 0.00 in/hr0.0 mm/hr 0.20 in5.1 mm
06:46 PM 44.2°F6.8°C 33.2°F0.7°C 65% 3.0 mph ENE4.8 kmh ENE 3.0 mph4.8 kmh 30.42 in1030.1 mb 0.00 in0.0 mm 0.00 in/hr0.0 mm/hr 0.20 in5.1 mm
06:40 PM 44.5°F6.9°C 33.5°F0.8°C 65% 3.0 mph NE4.8 kmh NE 7.0 mph11.3 kmh 30.42 in1030.1 mb 0.00 in0.0 mm 0.00 in/hr0.0 mm/hr 0.20 in5.1 mm
06:35 PM 44.7°F7.1°C 33.3°F0.7°C 64% Calm Calm 9.0 mph14.5 kmh 30.42 in1030.1 mb 0.00 in0.0 mm 0.00 in/hr0.0 mm/hr 0.20 in5.1 mm
06:30 PM 45.0°F7.2°C 33.2°F0.7°C 63% 6.0 mph NNW9.7 kmh NNW 10.0 mph16.1 kmh 30.42 in1030.1 mb 0.00 in0.0 mm 0.00 in/hr0.0 mm/hr 0.20 in5.1 mm
06:25 PM 45.0°F7.2°C 32.8°F0.4°C 62% 4.0 mph NW6.4 kmh NW 9.0 mph14.5 kmh 30.41 in1029.8 mb 0.00 in0.0 mm 0.00 in/hr0.0 mm/hr 0.20 in5.1 mm
06:20 PM 45.1°F7.3°C 32.5°F0.3°C 61% 4.0 mph E6.4 kmh E 9.0 mph14.5 kmh 30.41 in1029.8 mb 0.00 in0.0 mm 0.00 in/hr0.0 mm/hr 0.20 in5.1 mm
06:15 PM 45.2°F7.3°C 32.6°F0.3°C 61% 2.0 mph N3.2 kmh N 8.0 mph12.9 kmh 30.41 in1029.8 mb 0.00 in0.0 mm 0.00 in/hr0.0 mm/hr 0.20 in5.1 mm
06:10 PM 45.2°F7.3°C 33.0°F0.6°C 62% 2.0 mph NNE3.2 kmh NNE 12.0 mph19.3 kmh 30.40 in1029.5 mb 0.00 in0.0 mm 0.00 in/hr0.0 mm/hr 0.20 in5.1 mm
06:05 PM 45.0°F7.2°C 32.4°F0.2°C 61% 8.0 mph NNE12.9 kmh NNE 8.0 mph12.9 kmh 30.40 in1029.5 mb 0.00 in0.0 mm 0.00 in/hr0.0 mm/hr 0.20 in5.1 mm
06:00 PM 45.0°F7.2°C 32.4°F0.2°C 61% 8.0 mph NW12.9 kmh NW 13.0 mph20.9 kmh 30.40 in1029.5 mb 0.00 in0.0 mm 0.00 in/hr0.0 mm/hr 0.20 in5.1 mm
05:55 PM 45.0°F7.2°C 32.0°F0.0°C 60% 11.0 mph NNW17.7 kmh NNW 11.0 mph17.7 kmh 30.40 in1029.5 mb 0.00 in0.0 mm 0.00 in/hr0.0 mm/hr 0.20 in5.1 mm
05:50 PM 45.0°F7.2°C 32.0°F0.0°C 60% 4.0 mph N6.4 kmh N 10.0 mph16.1 kmh 30.40 in1029.5 mb 0.00 in0.0 mm 0.00 in/hr0.0 mm/hr 0.20 in5.1 mm
05:45 PM 45.3°F7.4°C 32.3°F0.2°C 60% 5.0 mph NE8.0 kmh NE 11.0 mph17.7 kmh 30.40 in1029.5 mb 0.00 in0.0 mm 0.00 in/hr0.0 mm/hr 0.20 in5.1 mm
05:40 PM 45.5°F7.5°C 32.4°F0.2°C 60% 6.0 mph E9.7 kmh E 11.0 mph17.7 kmh 30.40 in1029.5 mb 0.00 in0.0 mm 0.00 in/hr0.0 mm/hr 0.20 in5.1 mm
05:35 PM 45.6°F7.6°C 32.5°F0.3°C 60% 6.0 mph NNE9.7 kmh NNE 8.0 mph12.9 kmh 30.40 in1029.5 mb 0.00 in0.0 mm 0.00 in/hr0.0 mm/hr 0.20 in5.1 mm
05:30 PM 45.5°F7.5°C 32.0°F0.0°C 59% 3.0 mph N4.8 kmh N 11.0 mph17.7 kmh 30.40 in1029.5 mb 0.00 in0.0 mm 0.00 in/hr0.0 mm/hr 0.20 in5.1 mm
05:25 PM 45.8°F7.7°C 32.7°F0.4°C 60% 5.0 mph NNE8.0 kmh NNE 10.0 mph16.1 kmh 30.40 in1029.5 mb 0.00 in0.0 mm 0.00 in/hr0.0 mm/hr 0.20 in5.1 mm
05:20 PM 45.4°F7.4°C 31.9°F-0.1°C 59% 2.0 mph N3.2 kmh N 13.0 mph20.9 kmh 30.40 in1029.5 mb 0.00 in0.0 mm 0.00 in/hr0.0 mm/hr 0.20 in5.1 mm
05:15 PM 45.5°F7.5°C 32.0°F0.0°C 59% 12.0 mph NNW19.3 kmh NNW 13.0 mph20.9 kmh 30.40 in1029.5 mb 0.00 in0.0 mm 0.00 in/hr0.0 mm/hr 0.20 in5.1 mm
05:10 PM 45.8°F7.7°C 32.3°F0.2°C 59% 8.0 mph N12.9 kmh N 13.0 mph20.9 kmh 30.40 in1029.5 mb 0.00 in0.0 mm 0.00 in/hr0.0 mm/hr 0.20 in5.1 mm
05:05 PM 46.1°F7.8°C 32.6°F0.3°C 59% 1.0 mph NE1.6 kmh NE 9.0 mph14.5 kmh 30.39 in1029.1 mb 0.00 in0.0 mm 0.00 in/hr0.0 mm/hr 0.20 in5.1 mm
05:00 PM 46.0°F7.8°C 32.5°F0.3°C 59% 5.0 mph N8.0 kmh N 9.0 mph14.5 kmh 30.39 in1029.1 mb 0.00 in0.0 mm 0.00 in/hr0.0 mm/hr 0.20 in5.1 mm
04:55 PM 45.5°F7.5°C 32.4°F0.2°C 60% 2.0 mph NE3.2 kmh NE 11.0 mph17.7 kmh 30.39 in1029.1 mb 0.00 in0.0 mm 0.00 in/hr0.0 mm/hr 0.20 in5.1 mm
04:50 PM 45.4°F7.4°C 31.9°F-0.1°C 59% 1.0 mph NE1.6 kmh NE 13.0 mph20.9 kmh 30.40 in1029.5 mb 0.00 in0.0 mm 0.00 in/hr0.0 mm/hr 0.20 in5.1 mm
04:45 PM 45.3°F7.4°C 31.8°F-0.1°C 59% 4.0 mph N6.4 kmh N 11.0 mph17.7 kmh 30.40 in1029.5 mb 0.00 in0.0 mm 0.00 in/hr0.0 mm/hr 0.20 in5.1 mm
04:40 PM 45.6°F7.6°C 31.7°F-0.2°C 58% 6.0 mph NE9.7 kmh NE 15.0 mph24.1 kmh 30.39 in1029.1 mb 0.00 in0.0 mm 0.00 in/hr0.0 mm/hr 0.20 in5.1 mm
04:35 PM 45.4°F7.4°C 31.9°F-0.1°C 59% 2.0 mph NNW3.2 kmh NNW 13.0 mph20.9 kmh 30.39 in1029.1 mb 0.00 in0.0 mm 0.00 in/hr0.0 mm/hr 0.20 in5.1 mm
04:30 PM 45.3°F7.4°C 32.3°F0.2°C 60% 11.0 mph NW17.7 kmh NW 11.0 mph17.7 kmh 30.39 in1029.1 mb 0.00 in0.0 mm 0.00 in/hr0.0 mm/hr 0.20 in5.1 mm
04:25 PM 45.3°F7.4°C 31.4°F-0.3°C 58% 2.0 mph NNE3.2 kmh NNE 16.0 mph25.7 kmh 30.39 in1029.1 mb 0.00 in0.0 mm 0.00 in/hr0.0 mm/hr 0.20 in5.1 mm
04:20 PM 45.6°F7.6°C 31.3°F-0.4°C 57% 8.0 mph NNE12.9 kmh NNE 13.0 mph20.9 kmh 30.40 in1029.5 mb 0.00 in0.0 mm 0.00 in/hr0.0 mm/hr 0.20 in5.1 mm
04:15 PM 45.6°F7.6°C 31.7°F-0.2°C 58% 4.0 mph ENE6.4 kmh ENE 12.0 mph19.3 kmh 30.40 in1029.5 mb 0.00 in0.0 mm 0.00 in/hr0.0 mm/hr 0.20 in5.1 mm
04:10 PM 45.6°F7.6°C 31.7°F-0.2°C 58% Calm Calm 10.0 mph16.1 kmh 30.40 in1029.5 mb 0.00 in0.0 mm 0.00 in/hr0.0 mm/hr 0.20 in5.1 mm
04:05 PM 45.2°F7.3°C 30.9°F-0.6°C 57% 3.0 mph SE4.8 kmh SE 14.0 mph22.5 kmh 30.40 in1029.5 mb 0.00 in0.0 mm 0.00 in/hr0.0 mm/hr 0.20 in5.1 mm
04:00 PM 45.0°F7.2°C 30.3°F-0.9°C 56% 2.0 mph NNE3.2 kmh NNE 16.0 mph25.7 kmh 30.40 in1029.5 mb 0.00 in0.0 mm 0.00 in/hr0.0 mm/hr 0.20 in5.1 mm
03:55 PM 45.4°F7.4°C 31.1°F-0.5°C 57% 7.0 mph E11.3 kmh E 14.0 mph22.5 kmh 30.40 in1029.5 mb 0.00 in0.0 mm 0.00 in/hr0.0 mm/hr 0.20 in5.1 mm
03:50 PM 45.8°F7.7°C 30.6°F-0.8°C 55% 4.0 mph NE6.4 kmh NE 13.0 mph20.9 kmh 30.39 in1029.1 mb 0.00 in0.0 mm 0.00 in/hr0.0 mm/hr 0.20 in5.1 mm
03:45 PM 45.1°F7.3°C 29.5°F-1.4°C 54% 6.0 mph N9.7 kmh N 15.0 mph24.1 kmh 30.39 in1029.1 mb 0.00 in0.0 mm 0.00 in/hr0.0 mm/hr 0.20 in5.1 mm
03:40 PM 45.3°F7.4°C 28.3°F-2.1°C 51% 4.0 mph SE6.4 kmh SE 14.0 mph22.5 kmh 30.39 in1029.1 mb 0.00 in0.0 mm 0.00 in/hr0.0 mm/hr 0.20 in5.1 mm
03:35 PM 45.8°F7.7°C 29.2°F-1.6°C 52% 9.0 mph ENE14.5 kmh ENE 15.0 mph24.1 kmh 30.39 in1029.1 mb 0.00 in0.0 mm 0.00 in/hr0.0 mm/hr 0.20 in5.1 mm
03:30 PM 45.9°F7.7°C 29.3°F-1.5°C 52% 1.0 mph NW1.6 kmh NW 12.0 mph19.3 kmh 30.39 in1029.1 mb 0.00 in0.0 mm 0.00 in/hr0.0 mm/hr 0.20 in5.1 mm
03:25 PM 45.5°F7.5°C 31.2°F-0.4°C 57% 8.0 mph NW12.9 kmh NW 12.0 mph19.3 kmh 30.40 in1029.5 mb 0.00 in0.0 mm 0.00 in/hr0.0 mm/hr 0.20 in5.1 mm
03:20 PM 45.0°F7.2°C 28.9°F-1.7°C 53% 8.0 mph ENE12.9 kmh ENE 17.0 mph27.4 kmh 30.40 in1029.5 mb 0.00 in0.0 mm 0.00 in/hr0.0 mm/hr 0.20 in5.1 mm
03:15 PM 45.0°F7.2°C 28.9°F-1.7°C 53% 13.0 mph E20.9 kmh E 15.0 mph24.1 kmh 30.40 in1029.5 mb 0.00 in0.0 mm 0.00 in/hr0.0 mm/hr 0.20 in5.1 mm
03:10 PM 45.2°F7.3°C 29.6°F-1.3°C 54% 9.0 mph N14.5 kmh N 14.0 mph22.5 kmh 30.40 in1029.5 mb 0.00 in0.0 mm 0.00 in/hr0.0 mm/hr 0.20 in5.1 mm
03:05 PM 45.2°F7.3°C 30.0°F-1.1°C 55% 4.0 mph NNW6.4 kmh NNW 15.0 mph24.1 kmh 30.40 in1029.5 mb 0.00 in0.0 mm 0.00 in/hr0.0 mm/hr 0.20 in5.1 mm
03:00 PM 45.0°F7.2°C 29.8°F-1.2°C 55% 5.0 mph NW8.0 kmh NW 14.0 mph22.5 kmh 30.40 in1029.5 mb 0.00 in0.0 mm 0.00 in/hr0.0 mm/hr 0.20 in5.1 mm
02:55 PM 45.0°F7.2°C 29.8°F-1.2°C 55% 3.0 mph N4.8 kmh N 15.0 mph24.1 kmh 30.40 in1029.5 mb 0.00 in0.0 mm 0.00 in/hr0.0 mm/hr 0.20 in5.1 mm
02:50 PM 45.2°F7.3°C 30.0°F-1.1°C 55% 8.0 mph ENE12.9 kmh ENE 16.0 mph25.7 kmh 30.40 in1029.5 mb 0.00 in0.0 mm 0.00 in/hr0.0 mm/hr 0.20 in5.1 mm
02:45 PM 45.2°F7.3°C 30.0°F-1.1°C 55% 7.0 mph NNE11.3 kmh NNE 15.0 mph24.1 kmh 30.41 in1029.8 mb 0.00 in0.0 mm 0.00 in/hr0.0 mm/hr 0.20 in5.1 mm
02:40 PM 45.1°F7.3°C 30.4°F-0.9°C 56% 5.0 mph E8.0 kmh E 13.0 mph20.9 kmh 30.40 in1029.5 mb 0.00 in0.0 mm 0.00 in/hr0.0 mm/hr 0.20 in5.1 mm
02:35 PM 45.2°F7.3°C 30.9°F-0.6°C 57% 8.0 mph NNW12.9 kmh NNW 12.0 mph19.3 kmh 30.41 in1029.8 mb 0.00 in0.0 mm 0.00 in/hr0.0 mm/hr 0.20 in5.1 mm
02:30 PM 45.4°F7.4°C 31.1°F-0.5°C 57% 14.0 mph ENE22.5 kmh ENE 16.0 mph25.7 kmh 30.41 in1029.8 mb 0.00 in0.0 mm 0.00 in/hr0.0 mm/hr 0.20 in5.1 mm
02:25 PM 45.1°F7.3°C 30.8°F-0.7°C 57% 9.0 mph NE14.5 kmh NE 12.0 mph19.3 kmh 30.41 in1029.8 mb 0.00 in0.0 mm 0.00 in/hr0.0 mm/hr 0.20 in5.1 mm
02:20 PM 45.7°F7.6°C 31.8°F-0.1°C 58% 12.0 mph E19.3 kmh E 15.0 mph24.1 kmh 30.41 in1029.8 mb 0.00 in0.0 mm 0.00 in/hr0.0 mm/hr 0.20 in5.1 mm
02:15 PM 44.9°F7.2°C 31.9°F-0.1°C 60% 4.0 mph NW6.4 kmh NW 11.0 mph17.7 kmh 30.41 in1029.8 mb 0.00 in0.0 mm 0.00 in/hr0.0 mm/hr 0.20 in5.1 mm
02:10 PM 44.6°F7.0°C 30.8°F-0.7°C 58% 5.0 mph NE8.0 kmh NE 15.0 mph24.1 kmh 30.40 in1029.5 mb 0.00 in0.0 mm 0.00 in/hr0.0 mm/hr 0.20 in5.1 mm
02:05 PM 44.7°F7.1°C 30.9°F-0.6°C 58% 8.0 mph ENE12.9 kmh ENE 14.0 mph22.5 kmh 30.40 in1029.5 mb 0.00 in0.0 mm 0.00 in/hr0.0 mm/hr 0.20 in5.1 mm
02:00 PM 45.3°F7.4°C 31.4°F-0.3°C 58% 4.0 mph NE6.4 kmh NE 11.0 mph17.7 kmh 30.40 in1029.5 mb 0.00 in0.0 mm 0.00 in/hr0.0 mm/hr 0.20 in5.1 mm
01:55 PM 45.0°F7.2°C 30.7°F-0.7°C 57% 9.0 mph NE14.5 kmh NE 10.0 mph16.1 kmh 30.40 in1029.5 mb 0.00 in0.0 mm 0.00 in/hr0.0 mm/hr 0.20 in5.1 mm
01:50 PM 44.8°F7.1°C 31.4°F-0.3°C 59% 6.0 mph NNW9.7 kmh NNW 11.0 mph17.7 kmh 30.41 in1029.8 mb 0.00 in0.0 mm 0.00 in/hr0.0 mm/hr 0.20 in5.1 mm
01:45 PM 44.5°F6.9°C 31.1°F-0.5°C 59% 4.0 mph NE6.4 kmh NE 16.0 mph25.7 kmh 30.40 in1029.5 mb 0.00 in0.0 mm 0.00 in/hr0.0 mm/hr 0.20 in5.1 mm
01:40 PM 44.6°F7.0°C 30.8°F-0.7°C 58% 6.0 mph N9.7 kmh N 12.0 mph19.3 kmh 30.40 in1029.5 mb 0.00 in0.0 mm 0.00 in/hr0.0 mm/hr 0.20 in5.1 mm
01:35 PM 44.6°F7.0°C 30.3°F-0.9°C 57% 4.0 mph N6.4 kmh N 11.0 mph17.7 kmh 30.40 in1029.5 mb 0.00 in0.0 mm 0.00 in/hr0.0 mm/hr 0.20 in5.1 mm
01:30 PM 45.0°F7.2°C 30.7°F-0.7°C 57% 5.0 mph E8.0 kmh E 14.0 mph22.5 kmh 30.40 in1029.5 mb 0.00 in0.0 mm 0.00 in/hr0.0 mm/hr 0.20 in5.1 mm
01:25 PM 45.2°F7.3°C 31.7°F-0.2°C 59% 9.0 mph E14.5 kmh E 9.0 mph14.5 kmh 30.40 in1029.5 mb 0.00 in0.0 mm 0.00 in/hr0.0 mm/hr 0.20 in5.1 mm
01:20 PM 44.9°F7.2°C 31.5°F-0.3°C 59% 9.0 mph NE14.5 kmh NE 11.0 mph17.7 kmh 30.39 in1029.1 mb 0.00 in0.0 mm 0.00 in/hr0.0 mm/hr 0.20 in5.1 mm
01:15 PM 44.3°F6.8°C 30.0°F-1.1°C 57% 6.0 mph NNW9.7 kmh NNW 16.0 mph25.7 kmh 30.39 in1029.1 mb 0.00 in0.0 mm 0.00 in/hr0.0 mm/hr 0.20 in5.1 mm
01:10 PM 44.6°F7.0°C 30.3°F-0.9°C 57% 5.0 mph NW8.0 kmh NW 13.0 mph20.9 kmh 30.40 in1029.5 mb 0.00 in0.0 mm 0.00 in/hr0.0 mm/hr 0.20 in5.1 mm
01:05 PM 44.6°F7.0°C 31.2°F-0.4°C 59% 2.0 mph NNE3.2 kmh NNE 10.0 mph16.1 kmh 30.40 in1029.5 mb 0.00 in0.0 mm 0.00 in/hr0.0 mm/hr 0.20 in5.1 mm
01:00 PM 44.1°F6.7°C 29.9°F-1.2°C 57% 8.0 mph NE12.9 kmh NE 16.0 mph25.7 kmh 30.40 in1029.5 mb 0.00 in0.0 mm 0.00 in/hr0.0 mm/hr 0.20 in5.1 mm
12:55 PM 43.9°F6.6°C 30.1°F-1.1°C 58% 5.0 mph NW8.0 kmh NW 12.0 mph19.3 kmh 30.40 in1029.5 mb 0.00 in0.0 mm 0.00 in/hr0.0 mm/hr 0.20 in5.1 mm
12:50 PM 43.7°F6.5°C 29.1°F-1.6°C 56% 3.0 mph N4.8 kmh N 15.0 mph24.1 kmh 30.39 in1029.1 mb 0.00 in0.0 mm 0.00 in/hr0.0 mm/hr 0.20 in5.1 mm
12:45 PM 44.2°F6.8°C 30.0°F-1.1°C 57% 6.0 mph N9.7 kmh N 12.0 mph19.3 kmh 30.40 in1029.5 mb 0.00 in0.0 mm 0.00 in/hr0.0 mm/hr 0.20 in5.1 mm
12:40 PM 44.4°F6.9°C 30.6°F-0.8°C 58% 4.0 mph NW6.4 kmh NW 15.0 mph24.1 kmh 30.39 in1029.1 mb 0.00 in0.0 mm 0.00 in/hr0.0 mm/hr 0.20 in5.1 mm
12:35 PM 44.0°F6.7°C 30.6°F-0.8°C 59% 5.0 mph ENE8.0 kmh ENE 14.0 mph22.5 kmh 30.39 in1029.1 mb 0.00 in0.0 mm 0.00 in/hr0.0 mm/hr 0.20 in5.1 mm
12:30 PM 43.6°F6.4°C 29.8°F-1.2°C 58% 4.0 mph N6.4 kmh N 15.0 mph24.1 kmh 30.39 in1029.1 mb 0.00 in0.0 mm 0.00 in/hr0.0 mm/hr 0.20 in5.1 mm
12:25 PM 43.3°F6.3°C 28.7°F-1.8°C 56% 1.0 mph E1.6 kmh E 16.0 mph25.7 kmh 30.39 in1029.1 mb 0.00 in0.0 mm 0.00 in/hr0.0 mm/hr 0.20 in5.1 mm
12:20 PM 43.7°F6.5°C 29.1°F-1.6°C 56% 5.0 mph E8.0 kmh E 18.0 mph29.0 kmh 30.39 in1029.1 mb 0.00 in0.0 mm 0.00 in/hr0.0 mm/hr 0.20 in5.1 mm
12:15 PM 43.5°F6.4°C 29.3°F-1.5°C 57% 3.0 mph N4.8 kmh N 12.0 mph19.3 kmh 30.39 in1029.1 mb 0.00 in0.0 mm 0.00 in/hr0.0 mm/hr 0.20 in5.1 mm
12:10 PM 42.9°F6.1°C 28.7°F-1.8°C 57% 2.0 mph N3.2 kmh N 15.0 mph24.1 kmh 30.39 in1029.1 mb 0.00 in0.0 mm 0.00 in/hr0.0 mm/hr 0.20 in5.1 mm
12:05 PM 43.1°F6.2°C 28.9°F-1.7°C 57% 5.0 mph ENE8.0 kmh ENE 15.0 mph24.1 kmh 30.39 in1029.1 mb 0.00 in0.0 mm 0.00 in/hr0.0 mm/hr 0.20 in5.1 mm
12:00 PM 43.1°F6.2°C 28.9°F-1.7°C 57% 9.0 mph NNW14.5 kmh NNW 17.0 mph27.4 kmh 30.39 in1029.1 mb 0.00 in0.0 mm 0.00 in/hr0.0 mm/hr 0.20 in5.1 mm
11:55 AM 42.8°F6.0°C 28.6°F-1.9°C 57% 10.0 mph NNE16.1 kmh NNE 15.0 mph24.1 kmh 30.39 in1029.1 mb 0.00 in0.0 mm 0.00 in/hr0.0 mm/hr 0.20 in5.1 mm
11:50 AM 43.0°F6.1°C 29.3°F-1.5°C 58% 9.0 mph N14.5 kmh N 16.0 mph25.7 kmh 30.39 in1029.1 mb 0.00 in0.0 mm 0.00 in/hr0.0 mm/hr 0.20 in5.1 mm
11:45 AM 42.9°F6.1°C 27.9°F-2.3°C 55% 5.0 mph N8.0 kmh N 14.0 mph22.5 kmh 30.38 in1028.8 mb 0.00 in0.0 mm 0.00 in/hr0.0 mm/hr 0.20 in5.1 mm
11:40 AM 43.0°F6.1°C 28.4°F-2.0°C 56% 5.0 mph NE8.0 kmh NE 11.0 mph17.7 kmh 30.39 in1029.1 mb 0.00 in0.0 mm 0.00 in/hr0.0 mm/hr 0.20 in5.1 mm
11:35 AM 43.4°F6.3°C 28.3°F-2.1°C 55% 4.0 mph N6.4 kmh N 14.0 mph22.5 kmh 30.39 in1029.1 mb 0.00 in0.0 mm 0.00 in/hr0.0 mm/hr 0.20 in5.1 mm
11:30 AM 43.0°F6.1°C 28.8°F-1.8°C 57% 2.0 mph NE3.2 kmh NE 15.0 mph24.1 kmh 30.38 in1028.8 mb 0.00 in0.0 mm 0.00 in/hr0.0 mm/hr 0.20 in5.1 mm
11:25 AM 43.0°F6.1°C 29.3°F-1.5°C 58% 12.0 mph NNW19.3 kmh NNW 14.0 mph22.5 kmh 30.38 in1028.8 mb 0.00 in0.0 mm 0.00 in/hr0.0 mm/hr 0.20 in5.1 mm
11:20 AM 42.4°F5.8°C 29.1°F-1.6°C 59% 2.0 mph NE3.2 kmh NE 14.0 mph22.5 kmh 30.38 in1028.8 mb 0.00 in0.0 mm 0.00 in/hr0.0 mm/hr 0.20 in5.1 mm
11:15 AM 42.1°F5.6°C 28.4°F-2.0°C 58% 4.0 mph E6.4 kmh E 12.0 mph19.3 kmh 30.38 in1028.8 mb 0.00 in0.0 mm 0.00 in/hr0.0 mm/hr 0.20 in5.1 mm
11:10 AM 42.0°F5.6°C 27.9°F-2.3°C 57% 3.0 mph ENE4.8 kmh ENE 14.0 mph22.5 kmh 30.39 in1029.1 mb 0.00 in0.0 mm 0.00 in/hr0.0 mm/hr 0.20 in5.1 mm
11:05 AM 42.0°F5.6°C 28.3°F-2.1°C 58% 8.0 mph N12.9 kmh N 17.0 mph27.4 kmh 30.38 in1028.8 mb 0.00 in0.0 mm 0.00 in/hr0.0 mm/hr 0.20 in5.1 mm
11:00 AM 41.9°F5.5°C 28.2°F-2.1°C 58% 4.0 mph NW6.4 kmh NW 15.0 mph24.1 kmh 30.38 in1028.8 mb 0.00 in0.0 mm 0.00 in/hr0.0 mm/hr 0.20 in5.1 mm
10:55 AM 41.6°F5.3°C 27.9°F-2.3°C 58% 4.0 mph NNW6.4 kmh NNW 18.0 mph29.0 kmh 30.38 in1028.8 mb 0.00 in0.0 mm 0.00 in/hr0.0 mm/hr 0.20 in5.1 mm
10:50 AM 41.8°F5.4°C 29.0°F-1.7°C 60% 4.0 mph NE6.4 kmh NE 10.0 mph16.1 kmh 30.38 in1028.8 mb 0.00 in0.0 mm 0.00 in/hr0.0 mm/hr 0.20 in5.1 mm
10:45 AM 41.2°F5.1°C 28.0°F-2.2°C 59% 4.0 mph NW6.4 kmh NW 15.0 mph24.1 kmh 30.38 in1028.8 mb 0.00 in0.0 mm 0.00 in/hr0.0 mm/hr 0.20 in5.1 mm
10:40 AM 40.9°F4.9°C 27.7°F-2.4°C 59% 8.0 mph NW12.9 kmh NW 16.0 mph25.7 kmh 30.38 in1028.8 mb 0.00 in0.0 mm 0.00 in/hr0.0 mm/hr 0.20 in5.1 mm
10:35 AM 41.0°F5.0°C 27.8°F-2.3°C 59% 4.0 mph N6.4 kmh N 12.0 mph19.3 kmh 30.38 in1028.8 mb 0.00 in0.0 mm 0.00 in/hr0.0 mm/hr 0.20 in5.1 mm
10:30 AM 41.6°F5.3°C 27.5°F-2.5°C 57% 13.0 mph N20.9 kmh N 18.0 mph29.0 kmh 30.38 in1028.8 mb 0.00 in0.0 mm 0.00 in/hr0.0 mm/hr 0.20 in5.1 mm
10:25 AM 42.1°F5.6°C 29.6°F-1.3°C 61% 1.0 mph NNW1.6 kmh NNW 9.0 mph14.5 kmh 30.38 in1028.8 mb 0.00 in0.0 mm 0.00 in/hr0.0 mm/hr 0.20 in5.1 mm
10:20 AM 41.3°F5.2°C 29.7°F-1.3°C 63% 3.0 mph NNW4.8 kmh NNW 6.0 mph9.7 kmh 30.37 in1028.4 mb 0.00 in0.0 mm 0.00 in/hr0.0 mm/hr 0.20 in5.1 mm
10:15 AM 40.6°F4.8°C 28.6°F-1.9°C 62% 2.0 mph N3.2 kmh N 10.0 mph16.1 kmh 30.37 in1028.4 mb 0.00 in0.0 mm 0.00 in/hr0.0 mm/hr 0.20 in5.1 mm
10:10 AM 40.4°F4.7°C 28.8°F-1.8°C 63% 2.0 mph NNW3.2 kmh NNW 14.0 mph22.5 kmh 30.36 in1028.1 mb 0.00 in0.0 mm 0.00 in/hr0.0 mm/hr 0.20 in5.1 mm
10:05 AM 40.5°F4.7°C 28.9°F-1.7°C 63% 10.0 mph N16.1 kmh N 11.0 mph17.7 kmh 30.36 in1028.1 mb 0.00 in0.0 mm 0.00 in/hr0.0 mm/hr 0.20 in5.1 mm
10:00 AM 40.2°F4.6°C 28.2°F-2.1°C 62% 6.0 mph ENE9.7 kmh ENE 14.0 mph22.5 kmh 30.36 in1028.1 mb 0.00 in0.0 mm 0.00 in/hr0.0 mm/hr 0.20 in5.1 mm
09:55 AM 40.2°F4.6°C 28.2°F-2.1°C 62% 1.0 mph NNE1.6 kmh NNE 15.0 mph24.1 kmh 30.36 in1028.1 mb 0.00 in0.0 mm 0.00 in/hr0.0 mm/hr 0.20 in5.1 mm
09:50 AM 39.8°F4.3°C 28.6°F-1.9°C 64% 2.0 mph NE3.2 kmh NE 12.0 mph19.3 kmh 30.36 in1028.1 mb 0.00 in0.0 mm 0.00 in/hr0.0 mm/hr 0.20 in5.1 mm
09:45 AM 39.6°F4.2°C 27.3°F-2.6°C 61% 6.0 mph NE9.7 kmh NE 17.0 mph27.4 kmh 30.35 in1027.8 mb 0.00 in0.0 mm 0.00 in/hr0.0 mm/hr 0.20 in5.1 mm
09:40 AM 39.6°F4.2°C 27.7°F-2.4°C 62% 10.0 mph N16.1 kmh N 11.0 mph17.7 kmh 30.35 in1027.8 mb 0.00 in0.0 mm 0.00 in/hr0.0 mm/hr 0.20 in5.1 mm
09:35 AM 39.3°F4.1°C 27.4°F-2.6°C 62% 2.0 mph NNE3.2 kmh NNE 13.0 mph20.9 kmh 30.34 in1027.4 mb 0.00 in0.0 mm 0.00 in/hr0.0 mm/hr 0.20 in5.1 mm
09:30 AM 39.4°F4.1°C 27.1°F-2.7°C 61% 12.0 mph ENE19.3 kmh ENE 15.0 mph24.1 kmh 30.34 in1027.4 mb 0.00 in0.0 mm 0.00 in/hr0.0 mm/hr 0.20 in5.1 mm
09:25 AM 39.3°F4.1°C 27.4°F-2.6°C 62% 10.0 mph NNE16.1 kmh NNE 12.0 mph19.3 kmh 30.34 in1027.4 mb 0.00 in0.0 mm 0.00 in/hr0.0 mm/hr 0.20 in5.1 mm
09:20 AM 39.2°F4.0°C 27.3°F-2.6°C 62% 4.0 mph NNE6.4 kmh NNE 13.0 mph20.9 kmh 30.33 in1027.1 mb 0.00 in0.0 mm 0.00 in/hr0.0 mm/hr 0.20 in5.1 mm
09:15 AM 39.2°F4.0°C 27.3°F-2.6°C 62% 2.0 mph WSW3.2 kmh WSW 13.0 mph20.9 kmh 30.32 in1026.8 mb 0.00 in0.0 mm 0.00 in/hr0.0 mm/hr 0.20 in5.1 mm
09:10 AM 38.8°F3.8°C 27.3°F-2.6°C 63% 1.0 mph N1.6 kmh N 11.0 mph17.7 kmh 30.32 in1026.8 mb 0.00 in0.0 mm 0.00 in/hr0.0 mm/hr 0.20 in5.1 mm
09:05 AM 38.5°F3.6°C 27.0°F-2.8°C 63% 9.0 mph NNW14.5 kmh NNW 12.0 mph19.3 kmh 30.32 in1026.8 mb 0.00 in0.0 mm 0.00 in/hr0.0 mm/hr 0.20 in5.1 mm
09:00 AM 38.3°F3.5°C 26.8°F-2.9°C 63% 2.0 mph N3.2 kmh N 14.0 mph22.5 kmh 30.31 in1026.4 mb 0.00 in0.0 mm 0.00 in/hr0.0 mm/hr 0.20 in5.1 mm
08:55 AM 38.3°F3.5°C 26.4°F-3.1°C 62% 15.0 mph NE24.1 kmh NE 15.0 mph24.1 kmh 30.31 in1026.4 mb 0.00 in0.0 mm 0.00 in/hr0.0 mm/hr 0.20 in5.1 mm
08:50 AM 38.3°F3.5°C 26.8°F-2.9°C 63% 2.0 mph N3.2 kmh N 13.0 mph20.9 kmh 30.31 in1026.4 mb 0.00 in0.0 mm 0.00 in/hr0.0 mm/hr 0.20 in5.1 mm
08:45 AM 37.9°F3.3°C 26.8°F-2.9°C 64% 3.0 mph NE4.8 kmh NE 15.0 mph24.1 kmh 30.30 in1026.1 mb 0.00 in0.0 mm 0.00 in/hr0.0 mm/hr 0.20 in5.1 mm
08:40 AM 37.8°F3.2°C 26.7°F-2.9°C 64% 4.0 mph NW6.4 kmh NW 10.0 mph16.1 kmh 30.30 in1026.1 mb 0.00 in0.0 mm 0.00 in/hr0.0 mm/hr 0.20 in5.1 mm
08:35 AM 37.6°F3.1°C 26.5°F-3.1°C 64% 4.0 mph NNW6.4 kmh NNW 9.0 mph14.5 kmh 30.30 in1026.1 mb 0.00 in0.0 mm 0.00 in/hr0.0 mm/hr 0.20 in5.1 mm
08:30 AM 37.2°F2.9°C 26.5°F-3.1°C 65% 3.0 mph N4.8 kmh N 9.0 mph14.5 kmh 30.30 in1026.1 mb 0.00 in0.0 mm 0.00 in/hr0.0 mm/hr 0.20 in5.1 mm
08:25 AM 36.8°F2.7°C 25.8°F-3.4°C 64% 5.0 mph NNE8.0 kmh NNE 15.0 mph24.1 kmh 30.29 in1025.7 mb 0.00 in0.0 mm 0.00 in/hr0.0 mm/hr 0.20 in5.1 mm
08:20 AM 36.7°F2.6°C 25.3°F-3.7°C 63% 4.0 mph ENE6.4 kmh ENE 14.0 mph22.5 kmh 30.29 in1025.7 mb 0.00 in0.0 mm 0.00 in/hr0.0 mm/hr 0.20 in5.1 mm
08:15 AM 36.5°F2.5°C 25.9°F-3.4°C 65% 2.0 mph N3.2 kmh N 13.0 mph20.9 kmh 30.29 in1025.7 mb 0.00 in0.0 mm 0.00 in/hr0.0 mm/hr 0.20 in5.1 mm
08:10 AM 36.4°F2.4°C 25.0°F-3.9°C 63% 3.0 mph NNE4.8 kmh NNE 13.0 mph20.9 kmh 30.28 in1025.4 mb 0.00 in0.0 mm 0.00 in/hr0.0 mm/hr 0.20 in5.1 mm
08:05 AM 36.4°F2.4°C 25.4°F-3.7°C 64% 9.0 mph NNW14.5 kmh NNW 13.0 mph20.9 kmh 30.28 in1025.4 mb 0.00 in0.0 mm 0.00 in/hr0.0 mm/hr 0.20 in5.1 mm
08:00 AM 36.3°F2.4°C 25.3°F-3.7°C 64% 2.0 mph NE3.2 kmh NE 12.0 mph19.3 kmh 30.28 in1025.4 mb 0.00 in0.0 mm 0.00 in/hr0.0 mm/hr 0.20 in5.1 mm
07:55 AM 36.2°F2.3°C 25.2°F-3.8°C 64% 9.0 mph NNW14.5 kmh NNW 12.0 mph19.3 kmh 30.28 in1025.4 mb 0.00 in0.0 mm 0.00 in/hr0.0 mm/hr 0.20 in5.1 mm
07:50 AM 36.1°F2.3°C 25.5°F-3.6°C 65% 1.0 mph NE1.6 kmh NE 14.0 mph22.5 kmh 30.27 in1025.1 mb 0.00 in0.0 mm 0.00 in/hr0.0 mm/hr 0.20 in5.1 mm
07:45 AM 36.0°F2.2°C 25.4°F-3.7°C 65% 5.0 mph NW8.0 kmh NW 11.0 mph17.7 kmh 30.27 in1025.1 mb 0.00 in0.0 mm 0.00 in/hr0.0 mm/hr 0.20 in5.1 mm
07:40 AM 35.9°F2.2°C 24.9°F-3.9°C 64% 4.0 mph NNW6.4 kmh NNW 15.0 mph24.1 kmh 30.27 in1025.1 mb 0.00 in0.0 mm 0.00 in/hr0.0 mm/hr 0.20 in5.1 mm
07:30 AM 35.6°F2.0°C 25.4°F-3.7°C 66% 10.0 mph N16.1 kmh N 15.0 mph24.1 kmh 30.26 in1024.7 mb 0.00 in0.0 mm 0.00 in/hr0.0 mm/hr 0.20 in5.1 mm
07:25 AM 35.4°F1.9°C 25.6°F-3.6°C 67% 2.0 mph NNW3.2 kmh NNW 12.0 mph19.3 kmh 30.26 in1024.7 mb 0.00 in0.0 mm 0.00 in/hr0.0 mm/hr 0.20 in5.1 mm
07:20 AM 35.4°F1.9°C 25.9°F-3.4°C 68% 1.0 mph N1.6 kmh N 10.0 mph16.1 kmh 30.25 in1024.4 mb 0.00 in0.0 mm 0.00 in/hr0.0 mm/hr 0.20 in5.1 mm
07:15 AM 35.3°F1.8°C 26.2°F-3.2°C 69% 3.0 mph N4.8 kmh N 8.0 mph12.9 kmh 30.25 in1024.4 mb 0.00 in0.0 mm 0.00 in/hr0.0 mm/hr 0.20 in5.1 mm
07:10 AM 35.4°F1.9°C 26.3°F-3.2°C 69% 1.0 mph N1.6 kmh N 10.0 mph16.1 kmh 30.25 in1024.4 mb 0.00 in0.0 mm 0.00 in/hr0.0 mm/hr 0.20 in5.1 mm
07:05 AM 35.4°F1.9°C 26.3°F-3.2°C 69% Calm Calm 8.0 mph12.9 kmh 30.24 in1024.0 mb 0.00 in0.0 mm 0.00 in/hr0.0 mm/hr 0.20 in5.1 mm
07:00 AM 35.4°F1.9°C 26.3°F-3.2°C 69% 8.0 mph NNW12.9 kmh NNW 8.0 mph12.9 kmh 30.24 in1024.0 mb 0.00 in0.0 mm 0.00 in/hr0.0 mm/hr 0.20 in5.1 mm
06:55 AM 35.3°F1.8°C 26.2°F-3.2°C 69% 5.0 mph NNW8.0 kmh NNW 12.0 mph19.3 kmh 30.23 in1023.7 mb 0.00 in0.0 mm 0.00 in/hr0.0 mm/hr 0.20 in5.1 mm
06:50 AM 35.3°F1.8°C 25.8°F-3.4°C 68% 5.0 mph NNW8.0 kmh NNW 10.0 mph16.1 kmh 30.23 in1023.7 mb 0.00 in0.0 mm 0.00 in/hr0.0 mm/hr 0.20 in5.1 mm
06:45 AM 35.3°F1.8°C 25.8°F-3.4°C 68% 4.0 mph NNE6.4 kmh NNE 14.0 mph22.5 kmh 30.23 in1023.7 mb 0.00 in0.0 mm 0.00 in/hr0.0 mm/hr 0.20 in5.1 mm
06:40 AM 35.3°F1.8°C 25.5°F-3.6°C 67% 4.0 mph NNW6.4 kmh NNW 11.0 mph17.7 kmh 30.23 in1023.7 mb 0.00 in0.0 mm 0.00 in/hr0.0 mm/hr 0.20 in5.1 mm
06:35 AM 35.3°F1.8°C 25.5°F-3.6°C 67% 9.0 mph N14.5 kmh N 12.0 mph19.3 kmh 30.23 in1023.7 mb 0.00 in0.0 mm 0.00 in/hr0.0 mm/hr 0.20 in5.1 mm
06:30 AM 35.3°F1.8°C 25.5°F-3.6°C 67% 4.0 mph ENE6.4 kmh ENE 14.0 mph22.5 kmh 30.22 in1023.4 mb 0.00 in0.0 mm 0.00 in/hr0.0 mm/hr 0.20 in5.1 mm
06:25 AM 35.4°F1.9°C 25.6°F-3.6°C 67% 7.0 mph NNE11.3 kmh NNE 9.0 mph14.5 kmh 30.21 in1023.0 mb 0.00 in0.0 mm 0.00 in/hr0.0 mm/hr 0.20 in5.1 mm
06:20 AM 35.4°F1.9°C 25.6°F-3.6°C 67% 5.0 mph NW8.0 kmh NW 13.0 mph20.9 kmh 30.21 in1023.0 mb 0.00 in0.0 mm 0.00 in/hr0.0 mm/hr 0.20 in5.1 mm
06:15 AM 35.5°F1.9°C 25.6°F-3.6°C 67% 4.0 mph N6.4 kmh N 10.0 mph16.1 kmh 30.20 in1022.7 mb 0.00 in0.0 mm 0.00 in/hr0.0 mm/hr 0.20 in5.1 mm
06:10 AM 35.7°F2.1°C 25.5°F-3.6°C 66% 4.0 mph NNE6.4 kmh NNE 16.0 mph25.7 kmh 30.20 in1022.7 mb 0.00 in0.0 mm 0.00 in/hr0.0 mm/hr 0.20 in5.1 mm
06:05 AM 35.9°F2.2°C 25.7°F-3.5°C 66% 2.0 mph NNE3.2 kmh NNE 12.0 mph19.3 kmh 30.19 in1022.4 mb 0.00 in0.0 mm 0.00 in/hr0.0 mm/hr 0.20 in5.1 mm
06:00 AM 35.9°F2.2°C 25.7°F-3.5°C 66% 4.0 mph NE6.4 kmh NE 18.0 mph29.0 kmh 30.19 in1022.4 mb 0.00 in0.0 mm 0.00 in/hr0.0 mm/hr 0.20 in5.1 mm
05:55 AM 35.9°F2.2°C 25.7°F-3.5°C 66% 6.0 mph N9.7 kmh N 16.0 mph25.7 kmh 30.19 in1022.4 mb 0.00 in0.0 mm 0.00 in/hr0.0 mm/hr 0.20 in5.1 mm
05:50 AM 35.9°F2.2°C 26.0°F-3.3°C 67% 8.0 mph NW12.9 kmh NW 15.0 mph24.1 kmh 30.19 in1022.4 mb 0.00 in0.0 mm 0.00 in/hr0.0 mm/hr 0.20 in5.1 mm
05:45 AM 35.9°F2.2°C 26.4°F-3.1°C 68% 3.0 mph NNW4.8 kmh NNW 13.0 mph20.9 kmh 30.18 in1022.0 mb 0.00 in0.0 mm 0.00 in/hr0.0 mm/hr 0.20 in5.1 mm
05:40 AM 35.9°F2.2°C 26.7°F-2.9°C 69% 12.0 mph NNW19.3 kmh NNW 17.0 mph27.4 kmh 30.18 in1022.0 mb 0.00 in0.0 mm 0.00 in/hr0.0 mm/hr 0.20 in5.1 mm
05:35 AM 36.0°F2.2°C 27.5°F-2.5°C 71% 6.0 mph NW9.7 kmh NW 11.0 mph17.7 kmh 30.17 in1021.7 mb 0.00 in0.0 mm 0.00 in/hr0.0 mm/hr 0.20 in5.1 mm
05:30 AM 35.9°F2.2°C 27.4°F-2.6°C 71% 2.0 mph NE3.2 kmh NE 15.0 mph24.1 kmh 30.17 in1021.7 mb 0.00 in0.0 mm 0.00 in/hr0.0 mm/hr 0.20 in5.1 mm
05:25 AM 35.6°F2.0°C 27.8°F-2.3°C 73% 4.0 mph NNE6.4 kmh NNE 18.0 mph29.0 kmh 30.17 in1021.7 mb 0.00 in0.0 mm 0.00 in/hr0.0 mm/hr 0.20 in5.1 mm
05:20 AM 35.5°F1.9°C 29.3°F-1.5°C 78% 4.0 mph N6.4 kmh N 9.0 mph14.5 kmh 30.16 in1021.3 mb 0.00 in0.0 mm 0.00 in/hr0.0 mm/hr 0.20 in5.1 mm
05:15 AM 35.4°F1.9°C 29.2°F-1.6°C 78% Calm Calm 6.0 mph9.7 kmh 30.16 in1021.3 mb 0.00 in0.0 mm 0.00 in/hr0.0 mm/hr 0.20 in5.1 mm
05:10 AM 35.5°F1.9°C 29.3°F-1.5°C 78% Calm Calm 6.0 mph9.7 kmh 30.15 in1021.0 mb 0.00 in0.0 mm 0.00 in/hr0.0 mm/hr 0.20 in5.1 mm
05:05 AM 35.5°F1.9°C 29.3°F-1.5°C 78% Calm Calm 5.0 mph8.0 kmh 30.15 in1021.0 mb 0.00 in0.0 mm 0.00 in/hr0.0 mm/hr 0.20 in5.1 mm
05:00 AM 35.7°F2.1°C 29.2°F-1.6°C 77% 1.0 mph N1.6 kmh N 8.0 mph12.9 kmh 30.14 in1020.7 mb 0.00 in0.0 mm 0.00 in/hr0.0 mm/hr 0.20 in5.1 mm
04:55 AM 35.8°F2.1°C 29.3°F-1.5°C 77% 2.0 mph N3.2 kmh N 14.0 mph22.5 kmh 30.14 in1020.7 mb 0.00 in0.0 mm 0.00 in/hr0.0 mm/hr 0.20 in5.1 mm
04:50 AM 35.8°F2.1°C 29.6°F-1.3°C 78% 2.0 mph NW3.2 kmh NW 11.0 mph17.7 kmh 30.14 in1020.7 mb 0.00 in0.0 mm 0.00 in/hr0.0 mm/hr 0.20 in5.1 mm
04:45 AM 35.9°F2.2°C 30.0°F-1.1°C 79% 4.0 mph NW6.4 kmh NW 10.0 mph16.1 kmh 30.14 in1020.7 mb 0.00 in0.0 mm 0.00 in/hr0.0 mm/hr 0.20 in5.1 mm
04:40 AM 35.8°F2.1°C 29.9°F-1.2°C 79% 8.0 mph NNW12.9 kmh NNW 17.0 mph27.4 kmh 30.13 in1020.3 mb 0.00 in0.0 mm 0.00 in/hr0.0 mm/hr 0.20 in5.1 mm
04:35 AM 35.7°F2.1°C 30.5°F-0.8°C 81% 4.0 mph NNW6.4 kmh NNW 16.0 mph25.7 kmh 30.13 in1020.3 mb 0.00 in0.0 mm 0.00 in/hr0.0 mm/hr 0.20 in5.1 mm
04:30 AM 35.9°F2.2°C 30.7°F-0.7°C 81% 1.0 mph NNW1.6 kmh NNW 11.0 mph17.7 kmh 30.13 in1020.3 mb 0.00 in0.0 mm 0.00 in/hr0.0 mm/hr 0.20 in5.1 mm
04:25 AM 36.0°F2.2°C 31.1°F-0.5°C 82% 1.0 mph NW1.6 kmh NW 8.0 mph12.9 kmh 30.12 in1020.0 mb 0.00 in0.0 mm 0.00 in/hr0.0 mm/hr 0.20 in5.1 mm
04:20 AM 36.1°F2.3°C 31.5°F-0.3°C 83% 8.0 mph N12.9 kmh N 9.0 mph14.5 kmh 30.12 in1020.0 mb 0.00 in0.0 mm 0.00 in/hr0.0 mm/hr 0.20 in5.1 mm
04:15 AM 36.2°F2.3°C 31.5°F-0.3°C 83% 6.0 mph NW9.7 kmh NW 13.0 mph20.9 kmh 30.11 in1019.6 mb 0.00 in0.0 mm 0.00 in/hr0.0 mm/hr 0.20 in5.1 mm
04:10 AM 36.1°F2.3°C 31.7°F-0.2°C 84% 10.0 mph NW16.1 kmh NW 14.0 mph22.5 kmh 30.11 in1019.6 mb 0.00 in0.0 mm 0.00 in/hr0.0 mm/hr 0.20 in5.1 mm
04:05 AM 36.2°F2.3°C 32.1°F0.1°C 85% 3.0 mph WSW4.8 kmh WSW 5.0 mph8.0 kmh 30.11 in1019.6 mb 0.00 in0.0 mm 0.00 in/hr0.0 mm/hr 0.20 in5.1 mm
04:00 AM 36.2°F2.3°C 32.1°F0.1°C 85% 3.0 mph NW4.8 kmh NW 10.0 mph16.1 kmh 30.10 in1019.3 mb 0.00 in0.0 mm 0.00 in/hr0.0 mm/hr 0.20 in5.1 mm
03:55 AM 36.3°F2.4°C 32.5°F0.3°C 86% 2.0 mph NNW3.2 kmh NNW 8.0 mph12.9 kmh 30.09 in1019.0 mb 0.00 in0.0 mm 0.00 in/hr0.0 mm/hr 0.20 in5.1 mm
03:50 AM 36.5°F2.5°C 32.7°F0.4°C 86% 2.0 mph NNW3.2 kmh NNW 11.0 mph17.7 kmh 30.09 in1019.0 mb 0.00 in0.0 mm 0.00 in/hr0.0 mm/hr 0.20 in5.1 mm
03:45 AM 36.5°F2.5°C 32.7°F0.4°C 86% 5.0 mph NW8.0 kmh NW 14.0 mph22.5 kmh 30.09 in1019.0 mb 0.00 in0.0 mm 0.00 in/hr0.0 mm/hr 0.20 in5.1 mm
03:40 AM 36.6°F2.6°C 33.1°F0.6°C 87% Calm Calm 15.0 mph24.1 kmh 30.08 in1018.6 mb 0.00 in0.0 mm 0.00 in/hr0.0 mm/hr 0.20 in5.1 mm
03:35 AM 36.8°F2.7°C 33.6°F0.9°C 88% 4.0 mph WNW6.4 kmh WNW 8.0 mph12.9 kmh 30.08 in1018.6 mb 0.04 in1.0 mm 0.00 in/hr0.0 mm/hr 0.20 in5.1 mm
03:30 AM 37.1°F2.8°C 34.2°F1.2°C 89% 1.0 mph NNW1.6 kmh NNW 9.0 mph14.5 kmh 30.08 in1018.6 mb 0.04 in1.0 mm 0.00 in/hr0.0 mm/hr 0.20 in5.1 mm
03:25 AM 37.3°F2.9°C 34.4°F1.3°C 89% 3.0 mph NNE4.8 kmh NNE 5.0 mph8.0 kmh 30.07 in1018.3 mb 0.04 in1.0 mm 0.00 in/hr0.0 mm/hr 0.20 in5.1 mm
03:20 AM 37.5°F3.1°C 34.8°F1.6°C 90% 8.0 mph N12.9 kmh N 9.0 mph14.5 kmh 30.07 in1018.3 mb 0.04 in1.0 mm 0.48 in/hr12.2 mm/hr 0.20 in5.1 mm
03:15 AM 37.6°F3.1°C 34.9°F1.6°C 90% 3.0 mph WNW4.8 kmh WNW 11.0 mph17.7 kmh 30.07 in1018.3 mb 0.00 in0.0 mm 0.00 in/hr0.0 mm/hr 0.16 in4.1 mm
03:10 AM 37.6°F3.1°C 35.2°F1.8°C 91% 3.0 mph NW4.8 kmh NW 11.0 mph17.7 kmh 30.06 in1017.9 mb 0.00 in0.0 mm 0.00 in/hr0.0 mm/hr 0.16 in4.1 mm
03:05 AM 37.7°F3.2°C 35.3°F1.8°C 91% 1.0 mph NNW1.6 kmh NNW 6.0 mph9.7 kmh 30.06 in1017.9 mb 0.00 in0.0 mm 0.00 in/hr0.0 mm/hr 0.16 in4.1 mm
03:00 AM 37.9°F3.3°C 35.5°F1.9°C 91% 4.0 mph NNW6.4 kmh NNW 5.0 mph8.0 kmh 30.05 in1017.6 mb 0.00 in0.0 mm 0.00 in/hr0.0 mm/hr 0.16 in4.1 mm
02:55 AM 37.9°F3.3°C 35.5°F1.9°C 91% 3.0 mph WSW4.8 kmh WSW 11.0 mph17.7 kmh 30.05 in1017.6 mb 0.04 in1.0 mm 0.00 in/hr0.0 mm/hr 0.16 in4.1 mm
02:50 AM 37.9°F3.3°C 35.5°F1.9°C 91% 5.0 mph NW8.0 kmh NW 10.0 mph16.1 kmh 30.05 in1017.6 mb 0.04 in1.0 mm 0.00 in/hr0.0 mm/hr 0.16 in4.1 mm
02:45 AM 38.0°F3.3°C 35.9°F2.2°C 92% 4.0 mph N6.4 kmh N 6.0 mph9.7 kmh 30.05 in1017.6 mb 0.04 in1.0 mm 0.00 in/hr0.0 mm/hr 0.16 in4.1 mm
02:40 AM 38.1°F3.4°C 36.0°F2.2°C 92% 3.0 mph NW4.8 kmh NW 8.0 mph12.9 kmh 30.05 in1017.6 mb 0.04 in1.0 mm 0.48 in/hr12.2 mm/hr 0.16 in4.1 mm
02:35 AM 38.3°F3.5°C 36.2°F2.3°C 92% 4.0 mph NW6.4 kmh NW 11.0 mph17.7 kmh 30.05 in1017.6 mb 0.00 in0.0 mm 0.00 in/hr0.0 mm/hr 0.12 in3.0 mm
02:30 AM 38.4°F3.6°C 36.3°F2.4°C 92% 4.0 mph NW6.4 kmh NW 4.0 mph6.4 kmh 30.05 in1017.6 mb 0.00 in0.0 mm 0.00 in/hr0.0 mm/hr 0.12 in3.0 mm
02:25 AM 38.4°F3.6°C 36.3°F2.4°C 92% 1.0 mph N1.6 kmh N 10.0 mph16.1 kmh 30.05 in1017.6 mb 0.00 in0.0 mm 0.00 in/hr0.0 mm/hr 0.12 in3.0 mm
02:20 AM 38.4°F3.6°C 36.3°F2.4°C 92% 1.0 mph NW1.6 kmh NW 13.0 mph20.9 kmh 30.04 in1017.3 mb 0.00 in0.0 mm 0.00 in/hr0.0 mm/hr 0.12 in3.0 mm
02:15 AM 38.6°F3.7°C 36.5°F2.5°C 92% 2.0 mph NW3.2 kmh NW 9.0 mph14.5 kmh 30.02 in1016.6 mb 0.04 in1.0 mm 0.00 in/hr0.0 mm/hr 0.12 in3.0 mm
02:10 AM 38.6°F3.7°C 36.5°F2.5°C 92% Calm Calm 6.0 mph9.7 kmh 30.03 in1016.9 mb 0.04 in1.0 mm 0.00 in/hr0.0 mm/hr 0.12 in3.0 mm
02:05 AM 38.6°F3.7°C 36.5°F2.5°C 92% 4.0 mph NW6.4 kmh NW 18.0 mph29.0 kmh 30.02 in1016.6 mb 0.04 in1.0 mm 0.00 in/hr0.0 mm/hr 0.12 in3.0 mm
02:00 AM 38.5°F3.6°C 36.4°F2.4°C 92% Calm Calm 6.0 mph9.7 kmh 30.02 in1016.6 mb 0.04 in1.0 mm 0.04 in/hr1.0 mm/hr 0.12 in3.0 mm
01:55 AM 38.3°F3.5°C 36.2°F2.3°C 92% Calm Calm 8.0 mph12.9 kmh 30.02 in1016.6 mb 0.00 in0.0 mm 0.00 in/hr0.0 mm/hr 0.08 in2.0 mm
01:50 AM 38.2°F3.4°C 36.1°F2.3°C 92% 2.0 mph NNW3.2 kmh NNW 12.0 mph19.3 kmh 30.01 in1016.3 mb 0.00 in0.0 mm 0.00 in/hr0.0 mm/hr 0.08 in2.0 mm
01:45 AM 38.3°F3.5°C 36.5°F2.5°C 93% 2.0 mph NNE3.2 kmh NNE 11.0 mph17.7 kmh 30.00 in1015.9 mb 0.00 in0.0 mm 0.00 in/hr0.0 mm/hr 0.08 in2.0 mm
01:40 AM 38.1°F3.4°C 36.3°F2.4°C 93% 10.0 mph N16.1 kmh N 18.0 mph29.0 kmh 30.01 in1016.3 mb 0.04 in1.0 mm 0.00 in/hr0.0 mm/hr 0.08 in2.0 mm
01:35 AM 38.1°F3.4°C 36.3°F2.4°C 93% 17.0 mph N27.4 kmh N 17.0 mph27.4 kmh 30.01 in1016.3 mb 0.04 in1.0 mm 0.00 in/hr0.0 mm/hr 0.08 in2.0 mm
01:30 AM 38.0°F3.3°C 36.2°F2.3°C 93% 4.0 mph N6.4 kmh N 16.0 mph25.7 kmh 30.00 in1015.9 mb 0.04 in1.0 mm 0.00 in/hr0.0 mm/hr 0.08 in2.0 mm
01:25 AM 37.9°F3.3°C 36.3°F2.4°C 94% 6.0 mph NNW9.7 kmh NNW 16.0 mph25.7 kmh 29.99 in1015.6 mb 0.04 in1.0 mm 0.48 in/hr12.2 mm/hr 0.08 in2.0 mm
01:20 AM 37.9°F3.3°C 36.3°F2.4°C 94% 8.0 mph N12.9 kmh N 13.0 mph20.9 kmh 29.99 in1015.6 mb 0.00 in0.0 mm 0.00 in/hr0.0 mm/hr 0.04 in1.0 mm
01:15 AM 37.9°F3.3°C 36.3°F2.4°C 94% 4.0 mph NNW6.4 kmh NNW 15.0 mph24.1 kmh 29.99 in1015.6 mb 0.00 in0.0 mm 0.00 in/hr0.0 mm/hr 0.04 in1.0 mm
01:10 AM 38.0°F3.3°C 36.4°F2.4°C 94% 6.0 mph WSW9.7 kmh WSW 14.0 mph22.5 kmh 29.99 in1015.6 mb 0.00 in0.0 mm 0.00 in/hr0.0 mm/hr 0.04 in1.0 mm
01:05 AM 38.0°F3.3°C 36.4°F2.4°C 94% 6.0 mph NNE9.7 kmh NNE 16.0 mph25.7 kmh 30.00 in1015.9 mb 0.04 in1.0 mm 0.00 in/hr0.0 mm/hr 0.04 in1.0 mm
01:00 AM 38.1°F3.4°C 36.5°F2.5°C 94% 3.0 mph ENE4.8 kmh ENE 16.0 mph25.7 kmh 29.99 in1015.6 mb 0.04 in1.0 mm 0.00 in/hr0.0 mm/hr 0.04 in1.0 mm
12:55 AM 38.0°F3.3°C 36.4°F2.4°C 94% 4.0 mph N6.4 kmh N 16.0 mph25.7 kmh 29.99 in1015.6 mb 0.04 in1.0 mm 0.48 in/hr12.2 mm/hr 0.04 in1.0 mm
12:50 AM 37.9°F3.3°C 36.3°F2.4°C 94% 3.0 mph NNW4.8 kmh NNW 13.0 mph20.9 kmh 30.00 in1015.9 mb 0.00 in0.0 mm 0.00 in/hr0.0 mm/hr 0.00 in0.0 mm
12:45 AM 37.8°F3.2°C 36.2°F2.3°C 94% 4.0 mph N6.4 kmh N 16.0 mph25.7 kmh 30.00 in1015.9 mb 0.00 in0.0 mm 0.00 in/hr0.0 mm/hr 0.00 in0.0 mm
12:40 AM 37.6°F3.1°C 36.0°F2.2°C 94% 5.0 mph NE8.0 kmh NE 13.0 mph20.9 kmh 29.99 in1015.6 mb 0.00 in0.0 mm 0.00 in/hr0.0 mm/hr 0.00 in0.0 mm
12:35 AM 37.5°F3.1°C 35.9°F2.2°C 94% 5.0 mph NNW8.0 kmh NNW 15.0 mph24.1 kmh 29.97 in1014.9 mb 0.00 in0.0 mm 0.00 in/hr0.0 mm/hr 0.00 in0.0 mm
12:30 AM 38.3°F3.5°C 36.7°F2.6°C 94% 9.0 mph NNE14.5 kmh NNE 16.0 mph25.7 kmh 29.95 in1014.2 mb 0.00 in0.0 mm 0.00 in/hr0.0 mm/hr 0.00 in0.0 mm
12:25 AM 39.3°F4.1°C 37.7°F3.2°C 94% 3.0 mph NNE4.8 kmh NNE 12.0 mph19.3 kmh 29.96 in1014.6 mb 0.00 in0.0 mm 0.00 in/hr0.0 mm/hr 0.00 in0.0 mm
12:20 AM 39.7°F4.3°C 38.1°F3.4°C 94% 4.0 mph N6.4 kmh N 11.0 mph17.7 kmh 29.97 in1014.9 mb 0.00 in0.0 mm 0.00 in/hr0.0 mm/hr 0.00 in0.0 mm
12:15 AM 39.8°F4.3°C 38.2°F3.4°C 94% 9.0 mph NNW14.5 kmh NNW 13.0 mph20.9 kmh 29.97 in1014.9 mb 0.00 in0.0 mm 0.00 in/hr0.0 mm/hr 0.00 in0.0 mm
12:10 AM 39.9°F4.4°C 38.3°F3.5°C 94% 13.0 mph N20.9 kmh N 13.0 mph20.9 kmh 29.99 in1015.6 mb 0.00 in0.0 mm 0.00 in/hr0.0 mm/hr 0.00 in0.0 mm
12:05 AM 40.4°F4.7°C 38.8°F3.8°C 94% 9.0 mph N14.5 kmh N 17.0 mph27.4 kmh 29.99 in1015.6 mb 0.00 in0.0 mm 0.00 in/hr0.0 mm/hr 0.00 in0.0 mm
12:00 AM 40.6°F4.8°C 39.0°F3.9°C 94% 6.0 mph N9.7 kmh N 11.0 mph17.7 kmh 29.99 in1015.6 mb 0.00 in0.0 mm 0.00 in/hr0.0 mm/hr 0.00 in0.0 mm
WeatherForYou.com, LLC is not responsible for any damages or problems caused by this service. Current weather conditions are obtained from the closest station including government and personal stations which may have varying degrees of accuracy. Weather forecasts are derived from the NOAA NDFD and obtained through HAMweather's Aeris Weather API. Like all things, this site belongs to Jesus Christ... He just trusts me to maintain it. If you have any questions or comments email webmaster@weatherforyou.com

Copyright © 2014, WeatherForYou.com LLC. All rights reserved.